Time;durP1;ratioP1;P1;durP2;ratioP2;P2;SDS_P1;SDS_P2;PMS_P1;PMS_P2;Temp;Humidity;BMP_temperature;BMP_pressure;BME280_temperature;BME280_humidity;BME280_pressure;Samples;Min_cycle;Max_cycle;Signal;HPM_P1;HPM_P2
2022/10/01 00:01:09;;;;;;;18.67;16.67;;;5.90;99.90;;;5.68;93.39;97670.56;5119593;27;20458;-79
2022/10/01 00:03:38;;;;;;;19.10;15.80;;;5.90;99.90;;;5.70;93.06;97658.84;5099992;27;20505;-82
2022/10/01 00:06:23;;;;;;;19.00;16.13;;;5.90;99.90;;;5.42;93.33;97630.16;5118402;27;20462;-80
2022/10/01 00:09:09;;;;;;;19.77;16.73;;;5.90;99.90;;;3.78;93.21;97384.31;5124215;27;20456;-83
2022/10/01 00:11:37;;;;;;;18.03;16.00;;;5.90;99.90;;;5.61;94.17;97671.53;5108450;27;20518;-84
2022/10/01 00:14:05;;;;;;;20.23;16.93;;;5.90;99.90;;;5.06;93.76;97589.00;5105330;28;20493;-86
2022/10/01 00:16:33;;;;;;;20.10;17.03;;;5.90;99.90;;;5.62;93.74;97668.69;5114905;27;20457;-84
2022/10/01 00:19:01;;;;;;;20.33;16.50;;;5.80;99.90;;;5.49;93.85;97652.47;5117095;27;20982;-83
2022/10/01 00:21:31;;;;;;;20.20;16.73;;;5.80;99.90;;;5.55;93.21;97659.75;5126730;27;20842;-83
2022/10/01 00:24:01;;;;;;;21.30;18.00;;;5.80;99.90;;;5.49;93.74;97663.19;5099572;28;20496;-83
2022/10/01 00:26:33;;;;;;;20.10;15.90;;;5.80;99.90;;;5.57;93.13;97676.47;5130513;27;20498;-81
2022/10/01 00:29:02;;;;;;;20.13;16.97;;;5.80;99.90;;;5.52;94.20;97674.38;5117148;27;20456;-81
2022/10/01 00:31:29;;;;;;;20.13;16.60;;;5.80;99.90;;;5.56;93.40;97682.84;5116481;27;20461;-85
2022/10/01 00:34:02;;;;;;;19.27;17.27;;;5.80;99.90;;;5.62;93.00;97682.06;5116018;27;20482;-82
2022/10/01 00:36:30;;;;;;;19.67;17.23;;;5.70;99.90;;;5.34;93.74;97650.69;5100732;27;20456;-81
2022/10/01 00:38:59;;;;;;;19.70;17.60;;;5.70;99.90;;;5.43;93.55;97677.38;5111770;28;20826;-85
2022/10/01 00:41:27;;;;;;;24.00;18.33;;;5.70;99.90;;;5.29;93.73;97661.16;5112019;28;20943;-84
2022/10/01 00:43:58;;;;;;;20.37;18.17;;;5.60;99.90;;;5.44;94.19;97669.13;5111639;28;20442;-84
2022/10/01 00:46:34;;;;;;;20.30;17.63;;;5.70;99.90;;;5.41;93.70;97668.69;5094556;28;20492;-84
2022/10/01 00:49:08;;;;;;;24.90;17.90;;;5.60;99.90;;;4.84;93.60;97577.44;5115030;27;20464;-85
2022/10/01 00:51:42;;;;;;;22.10;17.60;;;5.60;99.90;;;5.26;93.62;97653.50;5100740;28;20473;-85
2022/10/01 00:54:13;;;;;;;20.13;17.90;;;5.60;99.90;;;5.53;92.84;97675.19;5113564;28;20435;-81
2022/10/01 00:56:41;;;;;;;22.03;18.10;;;5.60;99.90;;;5.52;92.14;97662.78;5135528;27;20443;-85
2022/10/01 00:59:09;;;;;;;18.10;16.07;;;5.60;99.90;;;5.05;93.59;97625.66;5139331;27;20454;-86
2022/10/01 01:01:38;;;;;;;23.60;18.10;;;5.60;99.90;;;5.06;92.87;97613.13;5119238;27;20703;-83
2022/10/01 01:04:15;;;;;;;21.43;18.90;;;5.60;99.90;;;5.42;93.00;97671.16;5138556;27;20446;-82
2022/10/01 01:06:43;;;;;;;22.30;19.17;;;5.60;99.90;;;5.46;92.70;97671.63;5124820;27;21283;-81
2022/10/01 01:09:11;;;;;;;22.80;19.03;;;5.50;99.90;;;5.46;92.72;97668.94;5111346;27;21046;-82
2022/10/01 01:11:47;;;;;;;23.27;18.47;;;5.50;99.90;;;5.33;93.00;97662.41;5127725;27;20469;-82
2022/10/01 01:14:23;;;;;;;22.97;17.53;;;5.40;99.90;;;5.21;93.03;97627.28;5123986;27;20957;-84
2022/10/01 01:16:55;;;;;;;23.10;17.70;;;5.50;99.90;;;5.33;92.82;97642.84;5125079;27;20457;-78
2022/10/01 01:19:46;;;;;;;24.33;19.03;;;5.50;99.90;;;5.27;94.32;97657.84;5119048;27;20459;-84
2022/10/01 01:22:14;;;;;;;24.23;20.73;;;5.50;99.90;;;5.10;94.26;97620.59;5122986;27;20489;-80
2022/10/01 01:24:51;;;;;;;24.73;19.47;;;5.50;99.90;;;5.36;94.28;97651.31;5107641;27;20446;-80
2022/10/01 01:27:30;;;;;;;27.90;21.20;;;5.50;99.90;;;5.38;93.83;97651.13;5097019;28;20455;-81
2022/10/01 01:30:04;;;;;;;24.33;20.10;;;5.50;99.90;;;5.35;94.18;97635.44;5122458;27;20521;-82
2022/10/01 01:32:45;;;;;;;27.10;19.83;;;5.60;99.90;;;5.43;94.45;97637.16;5101204;27;20470;-84
2022/10/01 01:35:20;;;;;;;27.47;19.97;;;5.60;99.90;;;5.50;93.03;97643.41;5100720;27;20445;-81
2022/10/01 01:37:53;;;;;;;26.70;20.17;;;5.60;99.90;;;5.43;93.67;97615.75;5123818;27;20451;-81
2022/10/01 01:40:22;;;;;;;27.70;20.70;;;5.60;99.90;;;5.37;93.63;97606.63;5120409;27;20470;-84
2022/10/01 01:42:53;;;;;;;25.13;21.17;;;5.60;99.90;;;5.38;93.78;97613.63;5115668;27;20465;-85
2022/10/01 01:45:27;;;;;;;28.57;20.53;;;5.60;99.90;;;5.51;94.37;97631.66;5127903;27;20461;-84
2022/10/01 01:47:56;;;;;;;28.63;21.73;;;5.70;99.90;;;5.45;93.78;97640.47;5102398;28;20477;-81
2022/10/01 01:50:25;;;;;;;26.17;20.37;;;5.70;99.90;;;5.29;94.11;97591.50;5104197;28;20481;-84
2022/10/01 01:52:53;;;;;;;31.77;23.50;;;5.70;99.90;;;4.92;93.91;97539.84;5120612;28;20458;-84
2022/10/01 01:55:22;;;;;;;29.13;22.60;;;5.70;99.90;;;5.49;93.87;97631.03;5105976;28;20468;-85
2022/10/01 01:57:50;;;;;;;28.77;21.73;;;5.70;99.90;;;5.59;93.77;97619.97;5101838;28;20485;-88
2022/10/01 02:00:17;;;;;;;29.40;22.00;;;5.60;99.90;;;5.57;93.21;97616.66;5122123;28;20567;-80
2022/10/01 02:02:51;;;;;;;27.43;21.80;;;5.60;99.90;;;5.48;92.17;97616.81;5122270;27;21026;-81
2022/10/01 02:05:23;;;;;;;25.13;19.60;;;5.50;99.90;;;5.39;93.10;97605.41;5100339;28;20451;-84
2022/10/01 02:08:26;;;;;;;28.90;21.27;;;5.40;99.90;;;5.38;93.62;97614.47;5115740;28;21035;-83
2022/10/01 02:11:26;;;;;;;30.00;21.20;;;5.50;99.90;;;5.28;94.80;97619.31;5088673;27;20462;-84
2022/10/01 02:14:05;;;;;;;28.83;21.10;;;5.60;99.90;;;5.32;94.52;97625.94;5110276;27;20510;-80
2022/10/01 02:16:44;;;;;;;27.97;22.03;;;5.50;99.90;;;5.42;93.83;97620.25;5124433;27;20451;-81
2022/10/01 02:19:21;;;;;;;30.50;21.80;;;5.50;99.90;;;5.35;92.93;97617.50;5112678;27;20457;-83
2022/10/01 02:21:58;;;;;;;29.70;23.23;;;5.40;99.90;;;5.35;93.65;97608.66;5110339;27;20458;-89
2022/10/01 02:24:34;;;;;;;30.33;23.20;;;5.50;99.90;;;5.38;93.01;97609.13;5111786;27;20530;-80
2022/10/01 02:27:07;;;;;;;32.53;24.33;;;5.50;99.90;;;5.44;93.84;97617.41;5126252;27;20815;-80
2022/10/01 02:29:38;;;;;;;35.40;24.97;;;5.50;99.90;;;5.46;94.44;97612.66;5105809;28;20455;-83
2022/10/01 02:32:06;;;;;;;30.47;23.17;;;5.60;99.90;;;5.20;94.39;97574.72;5107405;28;20519;-83
2022/10/01 02:34:35;;;;;;;36.43;25.30;;;5.60;99.90;;;5.45;94.42;97606.47;5099118;28;20508;-82
2022/10/01 02:37:05;;;;;;;31.80;23.17;;;5.60;99.90;;;5.48;93.83;97598.06;5121634;27;20470;-82
2022/10/01 02:39:34;;;;;;;35.40;24.17;;;5.60;99.90;;;5.29;94.43;97564.72;5122006;27;20455;-81
2022/10/01 02:42:04;;;;;;;35.43;24.20;;;5.70;99.90;;;5.43;94.44;97587.06;5108801;27;20989;-83
2022/10/01 02:44:36;;;;;;;32.60;24.13;;;5.60;99.90;;;5.28;93.95;97560.38;5125202;27;21538;-86
2022/10/01 02:47:09;;;;;;;31.10;23.47;;;5.60;99.90;;;5.48;93.96;97582.00;5108352;27;20465;-82
2022/10/01 02:49:40;;;;;;;33.57;25.80;;;5.70;99.90;;;5.56;93.56;97599.78;5122388;27;20461;-82
2022/10/01 02:52:15;;;;;;;37.20;26.10;;;5.70;99.90;;;5.52;95.53;97590.44;5122430;27;22004;-81
2022/10/01 02:54:52;;;;;;;36.80;26.20;;;5.80;99.90;;;5.60;95.33;97594.84;5105700;27;20887;-84
2022/10/01 02:57:22;;;;;;;30.47;23.47;;;5.80;99.90;;;5.63;95.21;97589.94;5119200;27;20530;-81
2022/10/01 02:59:50;;;;;;;33.63;25.23;;;5.90;99.90;;;5.48;94.27;97549.84;5110769;27;20450;-84
2022/10/01 03:02:17;;;;;;;36.23;25.07;;;6.00;99.90;;;5.56;94.52;97551.53;5125359;27;20479;-82
2022/10/01 03:04:46;;;;;;;32.53;25.90;;;6.00;99.90;;;5.93;94.18;97589.72;5111018;27;20956;-81
2022/10/01 03:07:14;;;;;;;31.20;24.23;;;6.00;99.90;;;5.70;94.47;97560.50;5103876;27;20959;-87
2022/10/01 03:09:42;;;;;;;37.83;24.97;;;6.10;99.90;;;5.86;94.19;97575.47;5095407;27;20889;-82
2022/10/01 03:12:10;;;;;;;35.70;25.80;;;6.10;99.90;;;5.91;94.03;97586.41;5118937;27;20475;-83
2022/10/01 03:14:38;;;;;;;34.53;25.80;;;6.10;99.90;;;5.84;93.94;97582.88;5115418;27;20450;-83
2022/10/01 03:17:06;;;;;;;31.80;22.90;;;6.10;99.90;;;5.98;93.89;97585.63;5131504;27;20451;-86
2022/10/01 03:19:33;;;;;;;32.30;24.53;;;6.10;99.90;;;5.94;93.92;97583.34;5143597;27;20501;-89
2022/10/01 03:22:02;;;;;;;38.93;26.50;;;6.10;99.90;;;6.00;93.35;97583.59;5140324;27;20453;-88
2022/10/01 03:24:29;;;;;;;38.67;26.50;;;6.10;99.90;;;5.99;93.50;97579.22;5112439;28;20508;-85
2022/10/01 03:26:57;;;;;;;39.07;26.13;;;6.10;99.90;;;5.93;93.65;97579.00;5105202;27;20463;-83
2022/10/01 03:29:25;;;;;;;37.40;26.30;;;6.10;99.90;;;6.01;93.49;97567.31;5124617;27;20556;-83
2022/10/01 03:31:53;;;;;;;35.87;24.20;;;6.10;99.90;;;5.68;92.95;97512.44;5120822;27;20506;-80
2022/10/01 03:34:21;;;;;;;36.90;25.80;;;6.10;99.90;;;5.81;93.50;97533.16;5101710;27;20778;-82
2022/10/01 03:36:48;;;;;;;33.67;25.93;;;6.10;99.90;;;6.11;92.82;97574.19;5123350;27;20514;-87
2022/10/01 03:39:17;;;;;;;35.97;24.93;;;6.10;99.90;;;6.23;93.10;97576.13;5121747;27;20459;-84
2022/10/01 03:41:44;;;;;;;38.20;26.53;;;6.20;99.90;;;5.78;92.84;97506.75;5105115;27;20455;-83
2022/10/01 03:44:12;;;;;;;37.03;26.47;;;6.20;99.90;;;6.11;93.56;97568.84;5105157;27;20447;-83
2022/10/01 03:46:40;;;;;;;38.27;27.47;;;6.20;99.90;;;6.16;93.83;97572.59;5103800;27;20456;-83
2022/10/01 03:49:07;;;;;;;33.93;25.70;;;6.30;99.90;;;5.87;93.16;97503.88;5101299;27;20488;-84
2022/10/01 03:51:36;;;;;;;38.40;26.00;;;6.30;99.90;;;6.29;93.15;97554.88;5121079;27;20504;-87
2022/10/01 03:54:04;;;;;;;42.80;28.93;;;6.40;99.90;;;6.36;94.07;97566.47;5122381;27;20557;-84
2022/10/01 03:56:33;;;;;;;39.90;28.80;;;6.40;99.90;;;6.41;93.66;97564.00;5110123;27;20439;-84
2022/10/01 03:59:02;;;;;;;41.73;27.60;;;6.50;99.90;;;6.33;93.81;97562.31;5112663;27;20471;-89
2022/10/01 04:01:29;;;;;;;35.93;26.47;;;6.50;99.90;;;6.50;93.79;97548.56;5118640;27;20581;-87
2022/10/01 04:03:57;;;;;;;40.70;27.43;;;6.60;99.90;;;6.57;92.94;97549.44;5122589;27;20459;-82
2022/10/01 04:06:24;;;;;;;35.57;25.67;;;6.60;99.90;;;6.26;93.49;97512.34;5115839;27;20590;-84
2022/10/01 04:08:53;;;;;;;38.17;25.80;;;6.70;99.90;;;6.31;92.91;97509.91;5104449;27;20457;-84
2022/10/01 04:11:20;;;;;;;37.73;27.90;;;6.70;99.90;;;6.42;92.89;97517.38;5121783;27;20574;-85
2022/10/01 04:13:49;;;;;;;37.70;26.47;;;6.70;99.90;;;6.60;93.06;97540.16;5102715;27;20450;-83
2022/10/01 04:16:16;;;;;;;39.13;26.47;;;6.70;99.90;;;6.34;92.85;97482.69;5115356;27;20546;-83
2022/10/01 04:18:44;;;;;;;38.60;27.03;;;6.70;99.90;;;6.59;92.94;97533.94;5097827;27;20454;-83
2022/10/01 04:21:14;;;;;;;40.87;28.10;;;6.80;99.90;;;6.76;92.89;97529.06;5115626;27;20847;-86
2022/10/01 04:23:41;;;;;;;36.80;25.60;;;6.90;99.90;;;6.55;92.50;97489.75;5107324;27;20444;-85
2022/10/01 04:26:08;;;;;;;40.40;25.50;;;6.90;99.90;;;6.65;92.93;97505.47;5117426;27;20960;-85
2022/10/01 04:28:35;;;;;;;35.00;26.13;;;6.90;99.90;;;6.81;92.61;97525.72;5125924;27;20558;-86
2022/10/01 04:33:49;;;;;;;39.33;25.40;;;7.00;99.90;;;6.88;92.78;97533.81;5095589;28;20829;-84
2022/10/01 04:36:17;;;;;;;34.93;24.27;;;7.00;99.90;;;6.94;92.80;97530.31;5095448;28;21189;-84
2022/10/01 04:38:44;;;;;;;39.13;26.70;;;7.00;99.90;;;6.74;92.65;97498.88;5096212;28;20482;-84
2022/10/01 04:41:12;;;;;;;35.87;24.23;;;7.00;99.90;;;6.66;92.28;97496.38;5117868;27;20539;-82
2022/10/01 04:43:40;;;;;;;37.80;26.43;;;7.00;99.90;;;6.88;92.49;97512.31;5106240;28;20530;-82
2022/10/01 04:46:08;;;;;;;34.67;25.07;;;7.00;99.90;;;6.88;92.54;97515.00;5123033;27;20477;-81
2022/10/01 04:48:36;;;;;;;36.30;25.63;;;7.00;99.90;;;6.32;92.19;97433.75;5100270;27;20448;-81
2022/10/01 04:51:03;;;;;;;35.60;25.47;;;7.00;99.90;;;6.98;91.72;97525.38;5108733;27;20458;-84
2022/10/01 04:53:31;;;;;;;37.50;24.30;;;7.10;99.90;;;6.24;91.86;97398.03;5120004;27;20531;-85
2022/10/01 04:55:58;;;;;;;33.97;24.50;;;7.10;99.90;;;6.65;92.16;97489.38;5117613;27;20476;-84
2022/10/01 04:58:26;;;;;;;37.53;26.00;;;7.10;99.90;;;7.03;92.02;97534.44;5114325;27;20469;-84
2022/10/01 05:00:53;;;;;;;33.83;25.20;;;7.10;99.90;;;7.03;92.04;97531.75;5104225;27;20527;-83
2022/10/01 05:03:22;;;;;;;36.53;25.57;;;7.10;99.90;;;7.07;91.83;97537.56;5103088;27;20451;-83
2022/10/01 05:05:50;;;;;;;34.40;26.33;;;7.20;99.90;;;6.97;92.03;97543.34;5130441;27;20458;-84
2022/10/01 05:08:17;;;;;;;33.90;26.03;;;7.20;99.90;;;5.76;92.46;97329.19;5125038;27;20450;-88
2022/10/01 05:10:44;;;;;;;42.37;27.10;;;7.10;99.90;;;7.03;91.99;97528.28;5103703;27;20440;-84
2022/10/01 05:13:13;;;;;;;35.03;24.23;;;7.20;99.90;;;7.15;91.53;97544.59;5105346;27;20909;-84
2022/10/01 05:15:41;;;;;;;35.83;25.03;;;7.20;99.90;;;6.28;91.93;97413.72;5103546;27;20462;-87
2022/10/01 05:18:08;;;;;;;39.27;26.90;;;7.20;99.90;;;6.58;91.77;97457.13;5086108;27;20458;-87
2022/10/01 05:20:37;;;;;;;30.67;22.73;;;7.20;99.90;;;7.09;92.02;97544.41;5122350;27;20511;-87
2022/10/01 05:23:04;;;;;;;34.87;24.40;;;7.20;99.90;;;6.31;91.59;97416.00;5109104;27;20529;-86
2022/10/01 05:25:32;;;;;;;37.20;25.40;;;7.20;99.90;;;6.72;92.11;97463.34;5120236;27;20531;-85
2022/10/01 05:28:05;;;;;;;36.40;25.07;;;7.30;99.90;;;7.03;92.27;97512.97;5111150;27;20475;-87
2022/10/01 05:30:33;;;;;;;35.50;25.83;;;7.30;99.90;;;7.22;91.84;97537.38;5100909;27;20870;-84
2022/10/01 05:33:03;;;;;;;39.73;26.37;;;7.20;99.90;;;7.17;91.79;97539.84;5117751;27;20487;-82
2022/10/01 05:35:31;;;;;;;37.77;24.50;;;7.30;99.90;;;7.18;92.18;97542.34;5100867;27;20454;-87
2022/10/01 05:38:02;;;;;;;36.60;26.20;;;7.30;99.90;;;7.15;92.29;97533.84;5128479;27;21058;-87
2022/10/01 05:40:32;;;;;;;34.40;26.20;;;7.30;99.90;;;7.16;92.36;97544.41;5132179;27;20455;-86
2022/10/01 05:43:01;;;;;;;33.47;23.33;;;7.30;99.90;;;7.12;92.20;97510.09;5116992;28;20547;-82
2022/10/01 05:45:29;;;;;;;34.77;24.10;;;7.30;99.90;;;7.17;91.77;97534.47;5125333;27;20457;-82
2022/10/01 05:47:59;;;;;;;33.60;25.03;;;7.30;99.90;;;7.22;92.10;97526.63;5121303;27;20566;-80
2022/10/01 05:50:26;;;;;;;35.27;24.43;;;7.40;99.90;;;7.19;92.47;97535.09;5116039;27;20482;-80
2022/10/01 05:52:54;;;;;;;35.87;25.90;;;7.30;99.90;;;7.24;92.21;97554.13;5116501;28;21133;-79
2022/10/01 05:55:24;;;;;;;36.77;26.50;;;7.40;99.90;;;7.28;92.13;97522.28;5107212;28;20465;-81
2022/10/01 05:57:56;;;;;;;37.93;25.50;;;7.40;99.90;;;7.45;91.64;97536.13;5124362;28;20567;-79
2022/10/01 06:00:25;;;;;;;34.90;24.43;;;7.50;99.90;;;7.42;91.52;97531.19;5096175;28;20490;-80
2022/10/01 06:02:53;;;;;;;32.70;24.07;;;7.60;99.90;;;7.65;90.25;97526.19;5114777;28;20804;-80
2022/10/01 06:05:22;;;;;;;36.33;23.80;;;7.70;99.90;;;7.73;90.26;97527.84;5104722;28;20458;-78
2022/10/01 06:07:49;;;;;;;30.90;23.57;;;7.70;99.90;;;7.86;89.83;97524.31;5104129;28;20797;-80
2022/10/01 06:10:17;;;;;;;32.97;24.97;;;7.80;99.90;;;7.51;90.04;97443.94;5122283;28;20458;-77
2022/10/01 06:12:47;;;;;;;34.33;24.53;;;7.90;99.90;;;8.18;88.71;97519.06;5103396;28;20605;-83
2022/10/01 06:15:15;;;;;;;31.10;23.33;;;8.10;99.90;;;8.16;89.29;97518.44;5099322;28;20453;-81
2022/10/01 06:17:44;;;;;;;31.03;22.50;;;8.10;99.90;;;8.06;88.21;97515.34;5101673;28;20482;-83
2022/10/01 06:20:13;;;;;;;36.83;22.23;;;8.20;99.90;;;8.18;87.73;97508.28;5131996;27;20452;-85
2022/10/01 06:22:41;;;;;;;28.67;22.57;;;8.30;99.90;;;8.29;88.12;97514.06;5095351;28;20490;-77
2022/10/01 06:25:10;;;;;;;24.30;19.43;;;8.40;99.90;;;8.25;87.84;97499.34;5112945;28;20491;-77
2022/10/01 06:27:38;;;;;;;25.43;21.10;;;8.40;99.90;;;8.17;88.03;97512.03;5120394;28;20459;-76
2022/10/01 06:30:08;;;;;;;30.07;21.50;;;8.30;99.90;;;8.31;87.60;97498.50;5117281;28;20450;-79
2022/10/01 06:32:36;;;;;;;25.03;20.77;;;8.40;99.90;;;8.37;86.91;97503.03;5109687;28;21114;-76
2022/10/01 06:35:04;;;;;;;25.30;19.77;;;8.50;99.90;;;8.50;86.82;97500.31;5104591;28;20549;-77
2022/10/01 06:37:31;;;;;;;28.63;20.40;;;8.50;99.90;;;8.38;87.40;97499.31;5118733;28;20529;-81
2022/10/01 06:39:58;;;;;;;22.13;18.90;;;8.50;99.90;;;8.53;86.72;97492.84;5097367;28;20481;-78
2022/10/01 06:42:25;;;;;;;25.57;19.00;;;8.60;99.80;;;8.55;86.19;97501.53;5115941;28;20466;-78
2022/10/01 06:44:52;;;;;;;25.27;20.73;;;8.60;99.10;;;8.53;86.44;97492.84;5118383;28;20463;-77
2022/10/01 06:47:21;;;;;;;23.40;19.40;;;8.70;98.40;;;8.63;85.92;97498.59;5112763;28;20462;-78
2022/10/01 06:49:48;;;;;;;21.67;17.87;;;8.70;97.90;;;8.75;85.95;97501.41;5105440;28;20558;-76
2022/10/01 06:55:01;;;;;;;22.00;17.70;;;8.90;96.20;;;8.84;84.63;97499.28;5113587;28;20560;-77
2022/10/01 06:57:29;;;;;;;21.67;17.50;;;9.00;95.90;;;8.73;85.04;97490.03;5114835;27;20459;-79
2022/10/01 06:59:57;;;;;;;23.60;16.17;;;8.90;95.90;;;8.91;84.47;97500.09;5102492;27;20535;-77
2022/10/01 07:02:28;;;;;;;21.10;17.07;;;9.00;96.40;;;8.92;83.84;97493.66;5112386;27;20871;-81
2022/10/01 07:04:58;;;;;;;22.07;18.43;;;9.00;95.30;;;8.92;84.54;97490.97;5118756;27;20459;-78
2022/10/01 07:07:29;;;;;;;22.60;17.43;;;9.00;96.10;;;9.20;83.11;97487.03;5094240;27;20456;-79
2022/10/01 07:09:56;;;;;;;18.10;15.60;;;9.10;95.30;;;9.15;82.71;97470.69;5115912;27;20463;-78
2022/10/01 07:12:24;;;;;;;20.03;17.30;;;9.30;94.20;;;9.20;82.59;97492.44;5097626;27;20593;-77
2022/10/01 07:14:51;;;;;;;19.10;15.23;;;9.20;94.50;;;9.22;82.37;97493.03;5097141;27;20443;-78
2022/10/01 07:17:18;;;;;;;19.07;16.30;;;9.20;94.20;;;8.88;82.68;97441.28;5111441;27;20461;-75
2022/10/01 07:19:46;;;;;;;19.10;17.10;;;9.20;94.30;;;9.04;83.62;97493.78;5120340;27;20555;-77
2022/10/01 07:22:14;;;;;;;20.23;18.00;;;9.20;94.40;;;8.72;83.47;97438.06;5114730;27;20456;-77
2022/10/01 07:24:41;;;;;;;21.30;19.10;;;9.20;94.90;;;9.02;83.04;97491.31;5112524;27;20471;-78
2022/10/01 07:27:08;;;;;;;19.10;17.07;;;9.20;94.70;;;9.06;83.65;97495.22;5093420;28;20523;-77
2022/10/01 07:29:35;;;;;;;22.97;17.97;;;9.20;94.80;;;9.30;83.14;97487.34;5099151;27;20458;-75
2022/10/01 07:32:07;;;;;;;20.60;16.40;;;9.30;95.50;;;9.18;83.00;97489.94;5110361;27;20562;-78
2022/10/01 07:34:37;;;;;;;19.13;17.13;;;9.30;94.60;;;9.33;83.35;97496.88;5097102;27;20456;-77
2022/10/01 07:37:05;;;;;;;19.33;17.30;;;9.30;94.50;;;9.45;82.01;97503.22;5119079;27;20509;-75
2022/10/01 07:39:33;;;;;;;22.37;15.97;;;9.40;94.20;;;9.45;82.80;97499.66;5113660;27;20991;-77
2022/10/01 07:42:00;;;;;;;18.70;16.70;;;9.50;93.70;;;9.49;81.58;97496.31;5111139;27;20551;-80
2022/10/01 07:44:28;;;;;;;19.50;16.63;;;9.60;93.20;;;9.39;82.55;97500.56;5112919;27;20569;-79
2022/10/01 07:46:55;;;;;;;18.83;16.30;;;9.50;93.60;;;9.15;82.43;97443.72;5088616;27;20962;-78
2022/10/01 07:49:22;;;;;;;17.70;15.90;;;9.50;94.20;;;9.37;82.08;97490.00;5102944;27;20507;-80
2022/10/01 07:51:50;;;;;;;19.30;17.30;;;9.50;94.00;;;9.36;83.02;97491.03;5106538;27;20977;-82
2022/10/01 07:54:20;;;;;;;19.03;16.47;;;9.50;93.50;;;9.47;82.17;97502.97;5118831;27;20893;-80
2022/10/01 07:56:47;;;;;;;19.97;17.87;;;9.50;93.90;;;9.49;81.91;97500.91;5117244;27;20474;-81
2022/10/01 07:59:15;;;;;;;19.70;17.60;;;9.50;94.40;;;9.05;82.83;97431.59;5102984;27;20466;-82
2022/10/01 08:01:42;;;;;;;22.40;19.30;;;9.50;94.60;;;9.53;83.56;97490.47;5095686;27;20540;-80
2022/10/01 08:06:55;;;;;;;19.83;17.73;;;9.60;95.30;;;9.52;84.50;97495.06;5098486;27;20465;-80
2022/10/01 08:09:24;;;;;;;22.00;18.90;;;9.50;96.50;;;9.37;84.65;97502.66;5100644;27;20979;-81
2022/10/01 08:11:51;;;;;;;19.40;16.73;;;9.50;96.00;;;9.54;84.52;97511.00;5133672;27;20720;-76
2022/10/01 08:14:19;;;;;;;22.93;18.53;;;9.50;96.50;;;9.56;84.56;97506.25;5123056;27;20454;-78
2022/10/01 08:16:47;;;;;;;19.40;16.07;;;9.60;97.30;;;9.62;84.48;97499.94;5134554;27;20452;-81
2022/10/01 08:19:14;;;;;;;17.50;15.70;;;9.60;96.80;;;9.57;84.35;97497.91;5099796;28;20454;-77
2022/10/01 08:21:42;;;;;;;18.97;17.00;;;9.50;96.90;;;9.46;85.64;97502.16;5115884;27;20504;-80
2022/10/01 08:24:09;;;;;;;21.53;17.00;;;9.60;98.00;;;9.56;85.56;97509.75;5111499;27;20462;-80
2022/10/01 08:26:38;;;;;;;18.53;16.37;;;9.50;99.60;;;9.47;85.73;97511.06;5095863;27;20881;-76
2022/10/01 08:29:05;;;;;;;20.57;16.70;;;9.60;99.00;;;9.42;86.38;97510.91;5112879;27;20939;-74
2022/10/01 08:31:34;;;;;;;18.07;16.17;;;9.50;99.90;;;9.29;86.77;97507.25;5119436;27;20579;-74
2022/10/01 08:34:01;;;;;;;16.53;14.83;;;9.40;99.90;;;9.51;86.24;97506.91;5117006;27;20483;-75
2022/10/01 08:36:29;;;;;;;20.53;15.57;;;9.50;99.90;;;9.64;86.23;97504.09;5111809;27;20541;-75
2022/10/01 08:38:56;;;;;;;18.13;14.77;;;9.60;99.90;;;9.61;86.36;97492.91;5123957;27;20457;-73
2022/10/01 08:41:44;;;;;;;19.10;16.50;;;9.60;99.90;;;9.51;87.06;97496.09;5103731;27;20452;-74
2022/10/01 08:44:20;;;;;;;16.70;15.00;;;9.60;99.90;;;9.62;86.91;97486.47;5108639;27;20457;-73
2022/10/01 08:46:49;;;;;;;16.97;14.10;;;9.60;99.90;;;9.38;87.86;97494.34;5116427;27;20458;-73
2022/10/01 08:49:21;;;;;;;17.77;15.60;;;9.50;99.90;;;9.47;87.83;97487.63;5098200;27;20451;-73
2022/10/01 08:51:55;;;;;;;17.93;16.23;;;9.50;99.90;;;9.55;87.73;97478.44;5086115;27;20547;-79
2022/10/01 08:54:33;;;;;;;16.27;14.57;;;9.60;99.90;;;9.55;87.38;97478.44;5117232;27;20601;-74
2022/10/01 08:57:09;;;;;;;17.70;16.00;;;9.50;99.90;;;9.30;87.66;97473.06;5099699;28;20534;-76
2022/10/01 08:59:40;;;;;;;17.13;14.73;;;9.50;99.90;;;9.42;88.44;97473.16;5098909;27;20455;-76
2022/10/01 09:02:21;;;;;;;16.10;13.70;;;9.50;99.90;;;9.48;87.80;97467.69;5088018;27;20774;-77
2022/10/01 09:04:53;;;;;;;15.73;14.00;;;9.50;99.90;;;9.40;88.19;97477.94;5115212;27;20624;-74
2022/10/01 09:07:45;;;;;;;22.20;15.37;;;9.60;99.90;;;9.56;88.27;97469.28;5095039;27;20460;-76
2022/10/01 09:10:31;;;;;;;16.20;14.50;;;9.60;99.90;;;9.27;88.05;97406.13;5096189;27;20458;-77
2022/10/01 09:13:32;;;;;;;15.33;13.73;;;9.70;99.90;;;9.51;88.38;97461.06;5110751;27;20565;-75
2022/10/01 09:16:09;;;;;;;14.10;12.60;;;9.60;99.90;;;9.52;88.50;97457.31;5123022;27;20452;-75
2022/10/01 09:18:51;;;;;;;15.20;13.30;;;9.60;99.90;;;9.71;87.44;97451.94;5101151;27;20535;-77
2022/10/01 09:21:24;;;;;;;13.57;12.17;;;9.70;99.90;;;9.66;88.18;97446.38;5097770;27;20473;-75
2022/10/01 09:24:03;;;;;;;15.53;13.27;;;9.70;99.90;;;9.30;88.40;97401.09;5104949;27;20554;-76
2022/10/01 09:26:30;;;;;;;15.83;12.80;;;9.70;99.90;;;9.67;88.67;97443.44;5109131;27;20468;-76
2022/10/01 09:29:01;;;;;;;13.87;12.47;;;9.70;99.90;;;9.59;88.31;97430.28;5092609;27;21796;-84
2022/10/01 09:31:35;;;;;;;13.90;12.27;;;9.80;99.90;;;9.53;88.71;97413.09;5109874;27;20473;-78
2022/10/01 09:34:10;;;;;;;14.57;13.13;;;9.70;99.90;;;9.66;88.52;97424.81;5109550;27;20590;-77
2022/10/01 09:36:51;;;;;;;16.40;13.50;;;9.70;99.90;;;9.74;88.96;97419.94;5113680;27;20490;-76
2022/10/01 09:39:27;;;;;;;14.53;11.53;;;9.80;99.90;;;9.75;88.98;97418.88;5118802;27;21123;-76
2022/10/01 09:41:54;;;;;;;13.63;12.30;;;9.80;99.90;;;9.68;88.39;97412.72;5102044;28;20457;-82
2022/10/01 09:44:27;;;;;;;15.30;13.20;;;9.90;99.90;;;9.88;88.43;97415.19;5102502;27;20483;-75
2022/10/01 09:46:55;;;;;;;13.57;12.17;;;9.90;99.90;;;9.88;87.69;97412.50;5120131;27;20460;-82
2022/10/01 09:49:30;;;;;;;14.90;13.43;;;10.00;99.90;;;9.97;87.83;97402.22;5105873;27;21032;-79
2022/10/01 09:52:03;;;;;;;13.93;12.03;;;10.00;99.90;;;9.89;89.05;97406.06;5112264;27;20813;-77
2022/10/01 09:54:36;;;;;;;13.53;11.90;;;10.00;99.90;;;9.90;88.53;97394.22;5111927;28;21021;-76
2022/10/01 09:57:09;;;;;;;15.50;12.20;;;10.10;99.90;;;9.71;89.33;97388.03;5118887;27;20455;-76
2022/10/01 09:59:49;;;;;;;14.20;12.80;;;9.90;99.90;;;9.77;89.42;97397.06;5118090;28;20463;-85
2022/10/01 10:02:25;;;;;;;15.37;12.87;;;9.90;99.90;;;9.86;89.29;97387.63;5095132;28;20469;-81
2022/10/01 10:05:00;;;;;;;15.20;13.60;;;10.00;99.90;;;9.68;89.69;97374.16;5107975;28;21028;-72
2022/10/01 10:07:31;;;;;;;13.70;12.40;;;9.90;99.90;;;9.89;89.36;97370.16;5101635;28;20954;-84
2022/10/01 10:10:09;;;;;;;13.73;12.40;;;10.00;99.90;;;9.85;89.62;97385.97;5121016;28;20468;-77
2022/10/01 10:12:36;;;;;;;14.47;13.07;;;10.00;99.90;;;10.00;89.56;97387.47;5109846;28;20621;-77
2022/10/01 10:15:16;;;;;;;16.40;14.23;;;10.10;99.90;;;10.10;88.79;97384.22;5088295;28;20478;-78
2022/10/01 10:17:45;;;;;;;13.93;12.50;;;10.10;99.90;;;10.06;88.75;97376.59;5115759;28;20470;-81
2022/10/01 10:20:25;;;;;;;12.57;11.37;;;10.10;99.90;;;9.75;89.01;97369.50;5116204;28;20522;-79
2022/10/01 10:22:52;;;;;;;13.87;12.43;;;10.00;99.90;;;9.90;89.54;97378.03;5100749;28;20836;-80
2022/10/01 10:25:24;;;;;;;11.50;10.30;;;10.00;99.90;;;10.00;89.47;97376.66;5105807;28;20489;-78
2022/10/01 10:27:54;;;;;;;11.73;10.60;;;10.10;99.90;;;9.98;88.65;97378.78;5099840;28;20452;-77
2022/10/01 10:30:25;;;;;;;11.90;10.80;;;10.10;99.90;;;10.18;87.16;97379.31;5094978;28;20454;-81
2022/10/01 10:32:54;;;;;;;11.80;10.73;;;10.20;99.90;;;10.13;86.97;97372.97;5112373;27;20465;-81
2022/10/01 10:35:25;;;;;;;9.37;8.57;;;10.30;99.80;;;10.39;86.96;97379.88;5094333;27;20898;-79
2022/10/01 10:37:56;;;;;;;10.43;9.43;;;10.30;99.90;;;10.62;86.45;97383.72;5104239;27;20478;-77
2022/10/01 10:40:26;;;;;;;11.87;9.97;;;10.40;99.90;;;10.67;85.65;97373.03;5124160;27;20908;-79